createdAt,value
2023-07-03T00:00:22.249Z,41.23
2023-07-03T00:01:22.293Z,41.26
2023-07-03T00:02:22.748Z,41.26
2023-07-03T00:03:22.376Z,41.26
2023-07-03T00:04:22.468Z,41.21
2023-07-03T00:05:22.589Z,41.18
2023-07-03T00:06:22.536Z,41.21
2023-07-03T00:07:22.539Z,41.18
2023-07-03T00:08:22.590Z,41.15
2023-07-03T00:09:22.653Z,41.11
2023-07-03T00:10:22.693Z,41.11
2023-07-03T00:11:22.731Z,41.12
2023-07-03T00:12:22.815Z,41.13
2023-07-03T00:13:22.890Z,41.15
2023-07-03T00:14:22.916Z,41.12
2023-07-03T00:15:22.968Z,41.13
2023-07-03T00:16:23.067Z,41.17
2023-07-03T00:17:23.126Z,41.13
2023-07-03T00:18:23.130Z,41.15
2023-07-03T00:19:23.164Z,41.15
2023-07-03T00:20:23.230Z,41.20
2023-07-03T00:21:23.290Z,41.15
2023-07-03T00:22:23.337Z,41.13
2023-07-03T00:23:23.366Z,41.19
2023-07-03T00:24:23.454Z,41.18
2023-07-03T00:25:23.533Z,41.22
2023-07-03T00:26:23.542Z,41.11
2023-07-03T00:27:23.613Z,41.13
2023-07-03T00:28:23.673Z,41.11
2023-07-03T00:29:23.711Z,41.09
2023-07-03T00:30:23.782Z,41.09
2023-07-03T00:31:23.930Z,41.04
2023-07-03T00:32:23.898Z,41.03
2023-07-03T00:33:23.983Z,41.09
2023-07-03T00:34:24.019Z,40.96
2023-07-03T00:35:24.061Z,40.95
2023-07-03T00:36:24.129Z,41.04
2023-07-03T00:37:24.178Z,40.95
2023-07-03T00:38:24.213Z,40.96
2023-07-03T00:39:24.273Z,41.00
2023-07-03T00:40:24.330Z,40.97
2023-07-03T00:41:24.412Z,40.91
2023-07-03T00:42:24.434Z,40.96
2023-07-03T00:43:24.522Z,40.93
2023-07-03T00:44:24.559Z,40.95
2023-07-03T00:45:24.636Z,40.95
2023-07-03T00:46:24.687Z,40.90
2023-07-03T00:47:24.786Z,40.89
2023-07-03T00:48:24.779Z,40.86
2023-07-03T00:49:24.843Z,40.89
2023-07-03T00:50:24.889Z,40.88
2023-07-03T00:51:24.904Z,40.89
2023-07-03T00:52:24.977Z,40.88
2023-07-03T00:53:25.052Z,40.85
2023-07-03T00:54:25.055Z,40.83
2023-07-03T00:55:25.152Z,40.81
2023-07-03T00:56:25.224Z,40.82
2023-07-03T00:57:25.256Z,40.79
2023-07-03T00:58:25.311Z,40.83
2023-07-03T00:59:25.399Z,40.78
2023-07-03T01:00:25.430Z,40.81
2023-07-03T01:01:25.531Z,40.78
2023-07-03T01:02:25.587Z,40.81
2023-07-03T01:03:25.681Z,40.77
2023-07-03T01:04:25.806Z,40.72
2023-07-03T01:05:25.925Z,40.75
2023-07-03T01:06:25.782Z,40.76
2023-07-03T01:07:25.846Z,40.82
2023-07-03T01:08:25.923Z,40.80
2023-07-03T01:09:25.995Z,40.80
2023-07-03T01:10:26.054Z,40.83
2023-07-03T01:11:26.108Z,40.80
2023-07-03T01:12:26.168Z,40.77
2023-07-03T01:13:26.238Z,40.84
2023-07-03T01:14:26.306Z,40.83
2023-07-03T01:15:26.328Z,40.81
2023-07-03T01:16:26.451Z,40.88
2023-07-03T01:17:26.519Z,40.91
2023-07-03T01:18:26.538Z,40.91
2023-07-03T01:19:26.578Z,40.91
2023-07-03T01:20:26.671Z,40.92
2023-07-03T01:21:26.732Z,40.97
2023-07-03T01:22:26.737Z,41.00
2023-07-03T01:23:26.758Z,41.01
2023-07-03T01:24:26.848Z,41.03
2023-07-03T01:25:26.829Z,41.08
2023-07-03T01:26:26.863Z,41.14
2023-07-03T01:27:26.971Z,41.14
2023-07-03T01:28:26.892Z,41.24
2023-07-03T01:29:26.944Z,41.21
2023-07-03T01:30:26.926Z,41.21
2023-07-03T01:31:26.958Z,41.21
2023-07-03T01:32:26.990Z,41.23
2023-07-03T01:33:27.001Z,41.16
2023-07-03T01:34:27.028Z,41.22
2023-07-03T01:35:27.038Z,41.27
2023-07-03T01:36:27.126Z,41.23
2023-07-03T01:37:27.113Z,41.26
2023-07-03T01:38:27.162Z,41.23
2023-07-03T01:39:27.190Z,41.22
2023-07-03T01:40:27.212Z,41.22
2023-07-03T01:41:27.248Z,41.28
2023-07-03T01:42:27.243Z,41.27
2023-07-03T01:43:27.309Z,41.27
2023-07-03T01:44:27.326Z,41.30
2023-07-03T01:45:27.298Z,41.24
2023-07-03T01:46:27.382Z,41.33
2023-07-03T01:47:27.407Z,41.28
2023-07-03T01:48:27.344Z,41.32
2023-07-03T01:49:27.364Z,41.36
2023-07-03T01:50:27.374Z,41.38
2023-07-03T01:51:27.338Z,41.33
2023-07-03T01:52:27.319Z,41.39
2023-07-03T01:53:27.337Z,41.33
2023-07-03T01:54:27.346Z,41.36
2023-07-03T01:55:27.325Z,41.32
2023-07-03T01:56:27.329Z,41.36
2023-07-03T01:57:27.370Z,41.33
2023-07-03T01:58:27.439Z,41.33
2023-07-03T01:59:27.362Z,41.35
2023-07-03T02:00:27.433Z,41.35
2023-07-03T02:01:27.454Z,41.33
2023-07-03T02:02:27.501Z,41.33
2023-07-03T02:03:27.479Z,41.33
2023-07-03T02:04:27.431Z,41.32
2023-07-03T02:05:27.408Z,41.36
2023-07-03T02:06:27.420Z,41.33
2023-07-03T02:07:27.405Z,41.33
2023-07-03T02:08:27.408Z,41.39
2023-07-03T02:09:27.431Z,41.33
2023-07-03T02:10:27.407Z,41.41
2023-07-03T02:11:27.438Z,41.34
2023-07-03T02:12:27.441Z,41.33
2023-07-03T02:13:27.488Z,41.40
2023-07-03T02:14:27.527Z,41.35
2023-07-03T02:15:27.557Z,41.39
2023-07-03T02:16:27.618Z,41.39
2023-07-03T02:17:27.594Z,41.46
2023-07-03T02:18:27.564Z,41.46
2023-07-03T02:19:27.560Z,41.44
2023-07-03T02:20:27.574Z,41.43
2023-07-03T02:21:27.572Z,41.50
2023-07-03T02:22:27.596Z,41.45
2023-07-03T02:23:27.573Z,41.42
2023-07-03T02:24:27.629Z,41.46
2023-07-03T02:25:27.610Z,41.41
2023-07-03T02:26:27.633Z,41.45
2023-07-03T02:27:27.647Z,41.41
2023-07-03T02:28:27.665Z,41.41
2023-07-03T02:29:27.650Z,41.35
2023-07-03T02:30:27.752Z,41.42
2023-07-03T02:31:27.792Z,41.38
2023-07-03T02:32:27.724Z,41.34
2023-07-03T02:33:27.709Z,41.33
2023-07-03T02:34:27.714Z,41.33
2023-07-03T02:35:27.696Z,41.34
2023-07-03T02:36:27.718Z,41.37
2023-07-03T02:37:27.754Z,41.34
2023-07-03T02:38:27.741Z,41.33
2023-07-03T02:39:27.772Z,41.31
2023-07-03T02:40:27.778Z,41.34
2023-07-03T02:41:27.807Z,41.30
2023-07-03T02:42:27.814Z,41.26
2023-07-03T02:43:27.790Z,41.31
2023-07-03T02:44:27.856Z,41.24
2023-07-03T02:45:27.813Z,41.20
2023-07-03T02:46:27.842Z,41.21
2023-07-03T02:47:28.073Z,41.18
2023-07-03T02:48:27.873Z,41.22
2023-07-03T02:49:27.956Z,41.25
2023-07-03T02:50:27.901Z,41.21
2023-07-03T02:51:27.934Z,41.17
2023-07-03T02:52:27.936Z,41.13
2023-07-03T02:53:27.987Z,41.04
2023-07-03T02:54:27.939Z,41.10
2023-07-03T02:55:27.983Z,41.03
2023-07-03T02:56:28.009Z,41.07
2023-07-03T02:57:27.972Z,41.07
2023-07-03T02:58:28.057Z,41.00
2023-07-03T02:59:28.043Z,40.95
2023-07-03T03:00:28.048Z,40.91
2023-07-03T03:01:28.065Z,40.85
2023-07-03T03:02:28.089Z,40.79
2023-07-03T03:03:28.188Z,40.77
2023-07-03T03:04:28.066Z,40.79
2023-07-03T03:05:28.075Z,40.78
2023-07-03T03:06:28.080Z,40.76
2023-07-03T03:07:28.124Z,40.76
2023-07-03T03:08:28.127Z,40.73
2023-07-03T03:09:28.154Z,40.76
2023-07-03T03:10:28.147Z,40.74
2023-07-03T03:11:28.167Z,40.73
2023-07-03T03:12:28.201Z,40.66
2023-07-03T03:13:28.198Z,40.56
2023-07-03T03:14:28.288Z,40.62
2023-07-03T03:15:28.268Z,40.61
2023-07-03T03:16:28.292Z,40.54
2023-07-03T03:17:28.301Z,40.46
2023-07-03T03:18:28.305Z,40.49
2023-07-03T03:19:28.265Z,40.44
2023-07-03T03:20:28.322Z,40.42
2023-07-03T03:21:28.311Z,40.44
2023-07-03T03:22:28.281Z,40.43
2023-07-03T03:23:28.309Z,40.37
2023-07-03T03:24:28.342Z,40.39
2023-07-03T03:25:28.340Z,40.42
2023-07-03T03:26:28.352Z,40.36
2023-07-03T03:27:28.331Z,40.38
2023-07-03T03:28:28.365Z,40.34
2023-07-03T03:29:28.331Z,40.29
2023-07-03T03:30:28.391Z,40.35
2023-07-03T03:31:28.389Z,40.31
2023-07-03T03:32:28.417Z,40.36
2023-07-03T03:33:28.359Z,40.38
2023-07-03T03:34:28.393Z,40.36
2023-07-03T03:35:28.395Z,40.36
2023-07-03T03:36:28.403Z,40.36
2023-07-03T03:37:28.404Z,40.36
2023-07-03T03:38:28.397Z,40.35
2023-07-03T03:39:28.392Z,40.35
2023-07-03T03:40:28.411Z,40.36
2023-07-03T03:41:28.421Z,40.43
2023-07-03T03:42:28.430Z,40.48
2023-07-03T03:43:28.477Z,40.44
2023-07-03T03:44:28.449Z,40.52
2023-07-03T03:45:28.462Z,40.54
2023-07-03T03:46:28.476Z,40.53
2023-07-03T03:47:28.482Z,40.51
2023-07-03T03:48:28.528Z,40.54
2023-07-03T03:49:28.457Z,40.57
2023-07-03T03:50:28.461Z,40.60
2023-07-03T03:51:28.511Z,40.68
2023-07-03T03:52:28.467Z,40.66
2023-07-03T03:53:28.479Z,40.69
2023-07-03T03:54:28.483Z,40.67
2023-07-03T03:55:28.490Z,40.66
2023-07-03T03:56:28.478Z,40.61
2023-07-03T03:57:28.507Z,40.65
2023-07-03T03:58:28.508Z,40.67
2023-07-03T03:59:28.485Z,40.66
2023-07-03T04:00:28.557Z,40.64
2023-07-03T04:01:28.531Z,40.64
2023-07-03T04:02:28.525Z,40.57
2023-07-03T04:03:28.560Z,40.59
2023-07-03T04:04:28.532Z,40.57
2023-07-03T04:05:28.524Z,40.61
2023-07-03T04:06:28.557Z,40.65
2023-07-03T04:07:28.541Z,40.67
2023-07-03T04:08:28.576Z,40.63
2023-07-03T04:09:28.582Z,40.65
2023-07-03T04:10:28.586Z,40.68
2023-07-03T04:11:28.578Z,40.60
2023-07-03T04:12:28.598Z,40.61
2023-07-03T04:13:28.642Z,40.55
2023-07-03T04:14:28.631Z,40.53
2023-07-03T04:15:28.623Z,40.44
2023-07-03T04:16:28.686Z,40.44
2023-07-03T04:17:28.697Z,40.41
2023-07-03T04:18:28.630Z,40.39
2023-07-03T04:19:28.746Z,40.34
2023-07-03T04:20:28.675Z,40.35
2023-07-03T04:21:28.701Z,40.31
2023-07-03T04:22:28.722Z,40.33
2023-07-03T04:23:28.745Z,40.33
2023-07-03T04:24:28.760Z,40.30
2023-07-03T04:25:28.742Z,40.30
2023-07-03T04:26:28.787Z,40.31
2023-07-03T04:27:28.799Z,40.30
2023-07-03T04:28:28.831Z,40.28
2023-07-03T04:29:28.825Z,40.31
2023-07-03T04:30:28.847Z,40.33
2023-07-03T04:31:28.931Z,40.33
2023-07-03T04:32:28.893Z,40.31
2023-07-03T04:33:28.875Z,40.33
2023-07-03T04:34:28.891Z,40.34
2023-07-03T04:35:28.919Z,40.29
2023-07-03T04:36:28.926Z,40.35
2023-07-03T04:37:28.950Z,40.28
2023-07-03T04:38:28.964Z,40.32
2023-07-03T04:39:28.997Z,40.35
2023-07-03T04:40:30.870Z,40.35
2023-07-03T04:41:29.033Z,40.32
2023-07-03T04:42:29.075Z,40.36
2023-07-03T04:43:29.041Z,40.35
2023-07-03T04:44:29.153Z,40.38
2023-07-03T04:45:29.090Z,40.43
2023-07-03T04:46:29.171Z,40.38
2023-07-03T04:47:29.212Z,40.45
2023-07-03T04:48:29.162Z,40.33
2023-07-03T04:49:29.195Z,40.40
2023-07-03T04:50:29.209Z,40.47
2023-07-03T04:51:29.250Z,40.43
2023-07-03T04:52:29.253Z,40.47
2023-07-03T04:53:29.288Z,40.52
2023-07-03T04:54:29.307Z,40.52
2023-07-03T04:55:29.355Z,40.54
2023-07-03T04:56:29.409Z,40.52
2023-07-03T04:57:29.418Z,40.53
2023-07-03T04:58:29.394Z,40.59
2023-07-03T04:59:29.428Z,40.63
2023-07-03T05:00:29.512Z,40.64
2023-07-03T05:01:29.493Z,40.65
2023-07-03T05:02:31.824Z,40.77
2023-07-03T05:03:29.545Z,40.70
2023-07-03T05:04:29.493Z,40.72
2023-07-03T05:05:29.517Z,40.78
2023-07-03T05:06:29.522Z,40.81
2023-07-03T05:07:29.529Z,40.81
2023-07-03T05:08:29.537Z,40.84
2023-07-03T05:09:29.531Z,40.84
2023-07-03T05:10:29.529Z,40.92
2023-07-03T05:11:29.552Z,40.88
2023-07-03T05:12:29.528Z,40.87
2023-07-03T05:13:29.567Z,40.89
2023-07-03T05:14:29.589Z,40.86
2023-07-03T05:15:29.563Z,40.86
2023-07-03T05:16:29.883Z,40.87
2023-07-03T05:17:29.597Z,40.88
2023-07-03T05:18:29.592Z,40.89
2023-07-03T05:19:29.626Z,40.86
2023-07-03T05:20:29.614Z,40.90
2023-07-03T05:21:29.611Z,40.90
2023-07-03T05:22:29.645Z,40.84
2023-07-03T05:23:29.654Z,40.90
2023-07-03T05:24:29.640Z,41.00
2023-07-03T05:25:29.653Z,41.05
2023-07-03T05:26:29.656Z,40.96
2023-07-03T05:27:29.658Z,40.97
2023-07-03T05:28:29.636Z,40.97
2023-07-03T05:29:29.682Z,40.93
2023-07-03T05:30:29.677Z,40.92
2023-07-03T05:31:29.906Z,40.99
2023-07-03T05:32:29.683Z,40.95
2023-07-03T05:33:29.679Z,40.98
2023-07-03T05:34:29.732Z,40.99
2023-07-03T05:35:29.719Z,41.00
2023-07-03T05:36:29.750Z,41.31
2023-07-03T05:37:29.801Z,41.06
2023-07-03T05:38:29.838Z,41.05
2023-07-03T05:39:32.585Z,41.09
2023-07-03T05:40:29.831Z,41.22
2023-07-03T05:41:29.832Z,41.34
2023-07-03T05:42:29.805Z,41.26
2023-07-03T05:43:29.818Z,41.49
2023-07-03T05:44:29.804Z,41.28
2023-07-03T05:45:29.797Z,41.35
2023-07-03T05:46:29.793Z,41.30
2023-07-03T05:47:29.768Z,41.25
2023-07-03T05:48:29.720Z,41.32
2023-07-03T05:49:29.737Z,41.69
2023-07-03T05:50:29.730Z,41.44
2023-07-03T05:51:29.726Z,41.56
2023-07-03T05:52:29.697Z,41.77
2023-07-03T05:53:29.658Z,41.50
2023-07-03T05:54:29.646Z,41.49
2023-07-03T05:55:29.651Z,41.50
2023-07-03T05:56:29.712Z,41.50
2023-07-03T05:57:29.694Z,41.57
2023-07-03T05:58:29.640Z,41.64
2023-07-03T05:59:29.613Z,41.93
2023-07-03T06:00:29.598Z,41.83
2023-07-03T06:01:29.691Z,41.68
2023-07-03T06:02:29.599Z,41.66
2023-07-03T06:03:29.633Z,41.77
2023-07-03T06:04:29.594Z,41.82
2023-07-03T06:05:29.588Z,42.15
2023-07-03T06:06:29.554Z,41.98
2023-07-03T06:07:29.549Z,41.98
2023-07-03T06:08:29.556Z,41.83
2023-07-03T06:09:29.550Z,41.66
2023-07-03T06:10:29.595Z,41.74
2023-07-03T06:11:29.524Z,41.79
2023-07-03T06:12:29.508Z,41.85
2023-07-03T06:13:29.501Z,41.89
2023-07-03T06:14:29.523Z,41.79
2023-07-03T06:15:29.489Z,41.79
2023-07-03T06:16:29.468Z,42.00
2023-07-03T06:17:29.511Z,41.95
2023-07-03T06:18:29.446Z,42.13
2023-07-03T06:19:29.455Z,42.21
2023-07-03T06:20:29.464Z,42.13
2023-07-03T06:21:29.417Z,42.16
2023-07-03T06:22:29.387Z,42.03
2023-07-03T06:23:29.390Z,41.87
2023-07-03T06:24:29.373Z,41.90
2023-07-03T06:25:29.353Z,41.98
2023-07-03T06:26:29.351Z,42.14
2023-07-03T06:27:29.329Z,42.17
2023-07-03T06:28:29.322Z,42.19
2023-07-03T06:29:29.321Z,42.04
2023-07-03T06:30:29.374Z,42.16
2023-07-03T06:31:29.351Z,42.20
2023-07-03T06:32:29.288Z,42.22
2023-07-03T06:33:29.263Z,42.29
2023-07-03T06:34:29.228Z,42.31
2023-07-03T06:35:29.291Z,42.26
2023-07-03T06:36:29.224Z,42.24
2023-07-03T06:37:29.338Z,42.27
2023-07-03T06:38:29.201Z,42.25
2023-07-03T06:39:29.139Z,42.39
2023-07-03T06:40:29.255Z,42.18
2023-07-03T06:41:29.107Z,42.41
2023-07-03T06:42:29.121Z,42.46
2023-07-03T06:43:29.075Z,42.50
2023-07-03T06:44:29.077Z,42.47
2023-07-03T06:45:29.046Z,41.72
2023-07-03T06:46:29.095Z,41.64
2023-07-03T06:47:29.042Z,41.62
2023-07-03T06:48:29.005Z,41.58
2023-07-03T06:49:29.014Z,41.59
2023-07-03T06:50:29.041Z,41.64
2023-07-03T06:51:28.966Z,41.46
2023-07-03T06:52:28.945Z,41.59
2023-07-03T06:53:29.042Z,41.57
2023-07-03T06:54:28.989Z,41.63
2023-07-03T06:55:28.918Z,41.65
2023-07-03T06:56:28.927Z,41.61
2023-07-03T06:57:28.865Z,41.62
2023-07-03T06:58:28.880Z,41.65
2023-07-03T06:59:28.908Z,41.56
2023-07-03T07:00:28.957Z,41.55
2023-07-03T07:01:28.960Z,41.53
2023-07-03T07:02:28.985Z,41.39
2023-07-03T07:03:29.061Z,41.41
2023-07-03T07:04:29.902Z,41.25
2023-07-03T07:05:29.049Z,41.19
2023-07-03T07:06:29.083Z,41.19
2023-07-03T07:07:29.086Z,41.20
2023-07-03T07:08:29.072Z,41.10
2023-07-03T07:09:29.239Z,40.96
2023-07-03T07:10:29.108Z,40.95
2023-07-03T07:11:29.110Z,40.95
2023-07-03T07:12:29.133Z,40.83
2023-07-03T07:13:29.188Z,40.82
2023-07-03T07:14:29.151Z,40.88
2023-07-03T07:15:29.193Z,40.92
2023-07-03T07:16:29.265Z,40.77
2023-07-03T07:17:45.890Z,40.56
2023-07-03T07:18:30.206Z,40.52
2023-07-03T07:19:29.202Z,40.44
2023-07-03T07:20:29.151Z,40.45
2023-07-03T07:21:29.170Z,40.28
2023-07-03T07:22:29.130Z,40.20
2023-07-03T07:23:29.134Z,40.14
2023-07-03T07:24:29.174Z,40.12
2023-07-03T07:25:29.188Z,40.17
2023-07-03T07:26:29.161Z,40.11
2023-07-03T07:27:29.133Z,39.90
2023-07-03T07:28:29.168Z,39.85
2023-07-03T07:29:29.111Z,39.94
2023-07-03T07:30:29.139Z,39.88
2023-07-03T07:31:29.166Z,39.81
2023-07-03T07:32:29.155Z,39.81
2023-07-03T07:33:29.132Z,39.66
2023-07-03T07:34:29.151Z,39.60
2023-07-03T07:36:47.257Z,39.41
2023-07-03T07:37:47.249Z,39.25
2023-07-03T07:38:47.233Z,39.22
2023-07-03T07:39:47.217Z,39.25
2023-07-03T07:40:47.337Z,39.78
2023-07-03T07:41:47.259Z,39.39
2023-07-03T07:42:47.262Z,39.29
2023-07-03T07:43:47.233Z,39.50
2023-07-03T07:44:47.234Z,40.67
2023-07-03T07:45:47.238Z,40.44
2023-07-03T07:46:47.496Z,40.84
2023-07-03T07:47:47.317Z,40.85
2023-07-03T07:48:47.289Z,40.70
2023-07-03T07:49:47.234Z,40.70
2023-07-03T07:50:47.257Z,40.51
2023-07-03T07:51:47.244Z,40.48
2023-07-03T07:52:47.311Z,40.50
2023-07-03T07:53:47.241Z,40.52
2023-07-03T07:54:47.207Z,40.58
2023-07-03T07:55:47.233Z,40.81
2023-07-03T07:56:47.199Z,40.52
2023-07-03T07:57:47.207Z,40.69
2023-07-03T07:58:47.184Z,40.47
2023-07-03T07:59:47.161Z,40.54
2023-07-03T08:00:47.172Z,40.55
2023-07-03T08:01:47.163Z,40.38
2023-07-03T08:02:47.154Z,40.42
2023-07-03T08:03:47.194Z,40.38
2023-07-03T08:04:47.244Z,40.28
2023-07-03T08:05:47.098Z,40.33
2023-07-03T08:06:47.112Z,40.37
2023-07-03T08:07:47.067Z,40.11
2023-07-03T08:08:47.055Z,40.18
2023-07-03T08:09:47.075Z,40.25
2023-07-03T08:10:47.055Z,40.20
2023-07-03T08:11:47.072Z,40.13
2023-07-03T08:12:47.148Z,40.06
2023-07-03T08:13:47.060Z,40.04
2023-07-03T08:14:47.041Z,39.98
2023-07-03T08:15:47.020Z,40.03
2023-07-03T08:16:47.073Z,39.98
2023-07-03T08:17:47.996Z,39.95
2023-07-03T08:18:49.651Z,39.91
2023-07-03T08:19:47.012Z,39.91
2023-07-03T08:20:46.983Z,39.94
2023-07-03T08:21:47.023Z,39.99
2023-07-03T08:22:46.991Z,39.88
2023-07-03T08:23:46.979Z,39.93
2023-07-03T08:24:47.005Z,39.90
2023-07-03T08:25:46.974Z,39.86
2023-07-03T08:26:46.959Z,39.88
2023-07-03T08:27:46.984Z,39.71
2023-07-03T08:28:47.056Z,39.73
2023-07-03T08:29:46.937Z,39.68
2023-07-03T08:30:46.960Z,39.79
2023-07-03T08:31:46.945Z,39.70
2023-07-03T08:32:47.025Z,39.88
2023-07-03T08:33:46.967Z,39.95
2023-07-03T08:37:46.882Z,39.27
2023-07-03T08:38:46.896Z,39.08
2023-07-03T08:39:46.869Z,39.24
2023-07-03T08:40:46.844Z,39.43
2023-07-03T08:41:46.871Z,39.36
2023-07-03T08:42:46.854Z,39.55
2023-07-03T08:43:46.846Z,40.00
2023-07-03T08:44:46.928Z,40.27
2023-07-03T08:45:46.864Z,40.44
2023-07-03T08:46:55.451Z,41.23
2023-07-03T08:47:47.810Z,41.50
2023-07-03T08:48:46.794Z,41.62
2023-07-03T08:49:46.776Z,41.46
2023-07-03T08:50:46.759Z,41.54
2023-07-03T08:51:46.765Z,41.84
2023-07-03T08:52:46.760Z,42.19
2023-07-03T08:53:46.717Z,42.33
2023-07-03T08:54:46.724Z,42.35
2023-07-03T08:55:46.739Z,42.38
2023-07-03T08:56:46.697Z,42.45
2023-07-03T08:57:46.692Z,42.62
2023-07-03T08:58:46.706Z,42.59
2023-07-03T08:59:46.688Z,42.59
2023-07-03T09:00:46.745Z,42.73
2023-07-03T09:01:46.785Z,42.92
2023-07-03T09:02:46.748Z,43.01
2023-07-03T09:03:46.773Z,43.23
2023-07-03T09:04:46.680Z,43.32
2023-07-03T09:05:46.612Z,43.42
2023-07-03T09:06:46.609Z,43.61
2023-07-03T09:07:46.570Z,43.57
2023-07-03T09:08:46.575Z,43.74
2023-07-03T09:09:46.590Z,43.92
2023-07-03T09:10:46.619Z,44.05
2023-07-03T09:11:46.642Z,44.20
2023-07-03T09:12:46.622Z,44.16
2023-07-03T09:13:46.669Z,44.25
2023-07-03T09:14:46.677Z,44.28
2023-07-03T09:15:46.674Z,44.40
2023-07-03T09:16:46.794Z,44.54
2023-07-03T09:17:46.737Z,44.55
2023-07-03T09:18:47.080Z,44.73
2023-07-03T09:19:46.885Z,44.68
2023-07-03T09:20:46.749Z,44.65
2023-07-03T09:21:46.779Z,44.59
2023-07-03T09:22:46.798Z,44.69
2023-07-03T09:23:46.797Z,44.75
2023-07-03T09:24:46.797Z,44.87
2023-07-03T09:25:46.810Z,44.86
2023-07-03T09:26:47.852Z,44.89
2023-07-03T09:27:48.325Z,45.03
2023-07-03T09:28:46.832Z,45.05
2023-07-03T09:29:46.901Z,44.78
2023-07-03T09:30:47.763Z,44.77
2023-07-03T09:31:46.872Z,44.42
2023-07-03T09:32:46.940Z,44.10
2023-07-03T09:33:46.872Z,43.35
2023-07-03T09:34:46.793Z,42.71
2023-07-03T09:35:46.794Z,42.56
2023-07-03T09:36:46.805Z,42.33
2023-07-03T09:37:46.826Z,42.16
2023-07-03T09:38:46.825Z,42.02
2023-07-03T09:39:46.914Z,41.86
2023-07-03T09:40:47.058Z,41.56
2023-07-03T09:41:47.888Z,40.82
2023-07-03T09:42:49.744Z,41.02
2023-07-03T09:43:46.837Z,40.83
2023-07-03T09:44:46.917Z,40.77
2023-07-03T09:45:46.830Z,40.47
2023-07-03T09:46:46.840Z,40.20
2023-07-03T09:47:46.847Z,39.91
2023-07-03T09:48:47.037Z,39.87
2023-07-03T09:49:46.791Z,39.68
2023-07-03T09:51:04.936Z,39.68
2023-07-03T09:51:47.777Z,39.42
2023-07-03T09:52:59.605Z,39.27
2023-07-03T09:53:47.740Z,39.04
2023-07-03T09:54:46.737Z,39.07
2023-07-03T09:55:46.750Z,38.99
2023-07-03T09:56:46.722Z,39.17
2023-07-03T09:57:46.709Z,39.17
2023-07-03T09:58:46.692Z,39.14
2023-07-03T09:59:46.682Z,39.05
2023-07-03T10:00:48.424Z,38.91
2023-07-03T10:03:46.794Z,38.46
2023-07-03T10:06:46.730Z,38.50
2023-07-03T10:07:46.724Z,38.46
2023-07-03T10:08:46.813Z,38.48
2023-07-03T10:11:46.652Z,38.19
2023-07-03T10:12:46.602Z,38.19
2023-07-03T10:13:46.538Z,38.17
2023-07-03T10:14:46.548Z,38.15
2023-07-03T10:15:46.505Z,38.01
2023-07-03T10:16:46.594Z,37.92
2023-07-03T10:17:46.584Z,37.85
2023-07-03T10:18:46.487Z,37.79
2023-07-03T10:19:46.473Z,37.65
2023-07-03T10:20:46.564Z,37.46
2023-07-03T10:21:46.489Z,37.42
2023-07-03T10:22:46.470Z,37.40
2023-07-03T10:23:46.455Z,37.27
2023-07-03T10:24:46.476Z,37.30
2023-07-03T10:25:46.427Z,37.18
2023-07-03T10:26:46.443Z,37.01
2023-07-03T10:27:46.457Z,36.99
2023-07-03T10:28:46.466Z,37.00
2023-07-03T10:29:46.426Z,36.95
2023-07-03T10:30:46.413Z,36.96
2023-07-03T10:31:46.564Z,36.92
2023-07-03T10:32:46.451Z,36.90
2023-07-03T10:33:46.394Z,36.83
2023-07-03T10:34:46.406Z,36.76
2023-07-03T10:35:46.370Z,36.69
2023-07-03T10:36:46.447Z,36.76
2023-07-03T10:37:46.337Z,36.72
2023-07-03T10:38:46.364Z,36.64
2023-07-03T10:39:46.339Z,36.61
2023-07-03T10:40:46.324Z,36.59
2023-07-03T10:41:46.338Z,36.58
2023-07-03T10:42:46.329Z,36.57
2023-07-03T10:43:46.311Z,36.59
2023-07-03T10:44:46.292Z,36.53
2023-07-03T10:45:46.332Z,36.52
2023-07-03T10:46:46.375Z,36.48
2023-07-03T10:47:46.428Z,36.43
2023-07-03T10:48:46.285Z,36.37
2023-07-03T10:49:46.265Z,36.36
2023-07-03T10:50:46.280Z,36.32
2023-07-03T10:51:46.283Z,36.28
2023-07-03T10:52:46.421Z,36.12
2023-07-03T10:53:46.302Z,36.15
2023-07-03T10:54:46.337Z,36.08
2023-07-03T10:55:46.349Z,36.02
2023-07-03T10:56:46.314Z,35.97
2023-07-03T10:57:46.309Z,35.93
2023-07-03T10:58:46.322Z,35.93
2023-07-03T10:59:46.308Z,35.95
2023-07-03T11:00:46.344Z,35.89
2023-07-03T11:01:46.449Z,35.83
2023-07-03T11:02:46.424Z,35.86
2023-07-03T11:03:47.821Z,35.80
2023-07-03T11:04:46.437Z,35.77
2023-07-03T11:05:46.383Z,35.74
2023-07-03T11:06:46.380Z,35.70
2023-07-03T11:07:46.429Z,35.73
2023-07-03T11:08:46.495Z,35.65
2023-07-03T11:09:46.431Z,35.63
2023-07-03T11:10:46.411Z,35.68
2023-07-03T11:11:46.472Z,35.58
2023-07-03T11:12:46.451Z,35.57
2023-07-03T11:13:46.493Z,35.51
2023-07-03T11:14:46.477Z,35.49
2023-07-03T11:15:46.516Z,35.47
2023-07-03T11:16:46.555Z,35.41
2023-07-03T11:22:46.558Z,35.22
2023-07-03T11:23:46.572Z,35.19
2023-07-03T11:24:46.553Z,35.23
2023-07-03T11:28:46.523Z,35.25
2023-07-03T11:29:46.544Z,35.19
2023-07-03T11:30:46.585Z,35.19
2023-07-03T11:31:46.799Z,35.25
2023-07-03T11:32:46.623Z,35.26
2023-07-03T11:39:46.592Z,35.20
2023-07-03T11:40:46.626Z,35.21
2023-07-03T11:43:46.552Z,35.13
2023-07-03T11:44:46.564Z,35.10
2023-07-03T11:45:46.594Z,35.11
2023-07-03T11:46:46.708Z,35.11
2023-07-03T11:47:46.622Z,35.09
2023-07-03T11:48:46.715Z,35.06
2023-07-03T11:49:46.594Z,35.06
2023-07-03T11:50:46.597Z,35.09
2023-07-03T11:51:46.617Z,35.08
2023-07-03T11:52:46.614Z,35.11
2023-07-03T11:53:46.593Z,35.11
2023-07-03T11:54:46.595Z,35.09
2023-07-03T11:55:46.611Z,35.07
2023-07-03T11:56:46.585Z,35.12
2023-07-03T11:57:49.963Z,35.11
2023-07-03T11:58:47.596Z,35.12
2023-07-03T11:59:46.637Z,35.13
2023-07-03T12:00:46.672Z,35.12
2023-07-03T12:01:46.633Z,35.11
2023-07-03T12:02:46.744Z,35.16
2023-07-03T12:03:46.702Z,35.11
2023-07-03T12:04:49.098Z,35.16
2023-07-03T12:05:46.668Z,35.13
2023-07-03T12:06:46.660Z,35.12
2023-07-03T12:07:46.674Z,35.15
2023-07-03T12:08:46.678Z,35.13
2023-07-03T12:09:46.690Z,35.23
2023-07-03T12:10:46.713Z,35.19
2023-07-03T12:11:46.712Z,35.22
2023-07-03T12:12:46.716Z,35.15
2023-07-03T12:13:46.799Z,35.15
2023-07-03T12:14:46.713Z,35.20
2023-07-03T12:15:46.780Z,35.22
2023-07-03T12:16:46.768Z,35.19
2023-07-03T12:17:46.869Z,35.19
2023-07-03T12:18:46.751Z,35.13
2023-07-03T12:19:46.725Z,35.13
2023-07-03T12:20:46.767Z,35.15
2023-07-03T12:21:46.810Z,35.13
2023-07-03T12:22:46.799Z,35.12
2023-07-03T12:23:49.197Z,35.15
2023-07-03T12:24:47.109Z,35.13
2023-07-03T12:25:47.039Z,35.09
2023-07-03T12:26:47.062Z,35.12
2023-07-03T12:27:47.090Z,35.08
2023-07-03T12:28:47.086Z,35.11
2023-07-03T12:29:47.129Z,35.04
2023-07-03T12:30:47.202Z,35.11
2023-07-03T12:31:47.193Z,35.04
2023-07-03T12:32:47.233Z,35.02
2023-07-03T12:33:47.222Z,35.06
2023-07-03T12:34:47.286Z,35.02
2023-07-03T12:35:47.359Z,35.00
2023-07-03T12:36:50.598Z,34.95
2023-07-03T12:37:48.339Z,34.97
2023-07-03T12:38:47.325Z,34.92
2023-07-03T12:39:47.357Z,34.94
2023-07-03T12:40:47.352Z,34.94
2023-07-03T12:41:47.359Z,34.88
2023-07-03T12:42:47.390Z,34.94
2023-07-03T12:43:50.902Z,34.88
2023-07-03T12:44:48.396Z,34.92
2023-07-03T12:45:47.439Z,34.87
2023-07-03T12:46:47.468Z,34.86
2023-07-03T12:47:47.457Z,34.88
2023-07-03T12:48:47.350Z,34.86
2023-07-03T12:49:47.387Z,34.87
2023-07-03T12:50:47.373Z,34.84
2023-07-03T12:51:48.732Z,34.84
2023-07-03T12:52:47.358Z,34.85
2023-07-03T12:53:47.360Z,34.92
2023-07-03T12:54:47.850Z,34.83
2023-07-03T12:55:47.382Z,34.81
2023-07-03T12:56:47.387Z,34.80
2023-07-03T12:57:47.402Z,34.82
2023-07-03T12:58:47.379Z,34.79
2023-07-03T12:59:47.385Z,34.87
2023-07-03T13:00:47.424Z,34.83
2023-07-03T13:01:47.391Z,34.81
2023-07-03T13:02:47.443Z,34.87
2023-07-03T13:03:47.407Z,34.87
2023-07-03T13:04:47.497Z,34.85
2023-07-03T13:05:47.465Z,34.86
2023-07-03T13:06:47.453Z,34.86
2023-07-03T13:07:47.535Z,34.84
2023-07-03T13:08:47.537Z,34.85
2023-07-03T13:09:47.549Z,34.87
2023-07-03T13:10:47.589Z,34.83
2023-07-03T13:11:47.597Z,34.81
2023-07-03T13:12:47.646Z,34.86
2023-07-03T13:13:47.700Z,34.90
2023-07-03T13:14:47.688Z,34.90
2023-07-03T13:15:47.724Z,34.96
2023-07-03T13:16:47.763Z,34.87
2023-07-03T13:17:47.816Z,34.86
2023-07-03T13:18:47.787Z,34.90